createdAt,value
2022-08-11T00:02:00.975Z,25.55
2022-08-11T00:04:38.049Z,25.48
2022-08-11T00:07:07.263Z,25.41
2022-08-11T00:09:40.154Z,25.34
2022-08-11T00:12:18.449Z,25.43
2022-08-11T00:14:55.889Z,25.31
2022-08-11T00:17:34.253Z,25.39
2022-08-11T00:20:17.004Z,25.31
2022-08-11T00:22:47.727Z,25.28
2022-08-11T00:25:20.726Z,25.03
2022-08-11T00:27:49.338Z,25.25
2022-08-11T00:30:17.683Z,24.94
2022-08-11T00:32:59.737Z,25.29
2022-08-11T00:35:50.819Z,25.16
2022-08-11T00:38:29.334Z,24.97
2022-08-11T00:41:42.674Z,25.10
2022-08-11T00:45:33.434Z,24.99
2022-08-11T00:48:47.588Z,24.80
2022-08-11T00:52:13.414Z,24.95
2022-08-11T00:55:55.736Z,24.91
2022-08-11T00:58:59.856Z,24.74
2022-08-11T01:02:12.534Z,24.86
2022-08-11T01:05:42.487Z,24.70
2022-08-11T01:09:07.249Z,24.73
2022-08-11T01:12:36.373Z,24.59
2022-08-11T01:15:57.084Z,24.68
2022-08-11T01:19:33.962Z,24.61
2022-08-11T01:23:34.949Z,24.60
2022-08-11T01:27:03.273Z,24.51
2022-08-11T01:30:56.631Z,24.46
2022-08-11T01:34:21.766Z,24.11
2022-08-11T01:37:59.312Z,24.20
2022-08-11T01:41:17.378Z,24.10
2022-08-11T01:44:40.119Z,24.07
2022-08-11T01:47:53.108Z,24.12
2022-08-11T01:51:22.961Z,23.80
2022-08-11T01:54:28.254Z,23.80
2022-08-11T01:57:35.343Z,24.05
2022-08-11T02:00:25.015Z,23.72
2022-08-11T02:03:46.211Z,23.98
2022-08-11T02:07:36.797Z,23.88
2022-08-11T02:11:18.159Z,23.84
2022-08-11T02:14:39.738Z,23.54
2022-08-11T02:17:38.729Z,23.61
2022-08-11T02:20:54.340Z,23.15
2022-08-11T02:24:06.070Z,23.33
2022-08-11T02:27:07.964Z,23.43
2022-08-11T02:30:07.489Z,23.21
2022-08-11T02:33:26.488Z,23.44
2022-08-11T02:36:11.792Z,23.36
2022-08-11T02:39:09.646Z,23.20
2022-08-11T02:42:42.387Z,22.80
2022-08-11T02:45:13.589Z,22.95
2022-08-11T02:48:16.729Z,22.90
2022-08-11T02:51:56.962Z,22.96
2022-08-11T02:55:00.006Z,22.85
2022-08-11T02:58:17.154Z,22.99
2022-08-11T03:01:03.403Z,22.98
2022-08-11T03:03:54.973Z,22.68
2022-08-11T03:07:29.059Z,22.81
2022-08-11T03:10:40.425Z,22.65
2022-08-11T03:13:51.034Z,22.54
2022-08-11T03:17:07.395Z,22.48
2022-08-11T03:20:24.665Z,22.48
2022-08-11T03:23:32.111Z,22.25
2022-08-11T03:26:53.893Z,22.24
2022-08-11T03:29:52.277Z,22.41
2022-08-11T03:33:23.081Z,22.11
2022-08-11T03:37:17.226Z,22.27
2022-08-11T03:40:37.971Z,22.12
2022-08-11T03:43:58.698Z,22.06
2022-08-11T03:47:31.963Z,22.02
2022-08-11T03:51:06.249Z,22.17
2022-08-11T03:54:28.583Z,21.95
2022-08-11T03:58:32.065Z,21.94
2022-08-11T04:01:53.530Z,21.96
2022-08-11T04:05:49.016Z,21.93
2022-08-11T04:09:15.573Z,21.80
2022-08-11T04:13:13.171Z,21.63
2022-08-11T04:16:25.220Z,21.65
2022-08-11T04:20:14.560Z,21.67
2022-08-11T04:24:36.492Z,21.85
2022-08-11T04:27:47.822Z,21.56
2022-08-11T04:31:02.788Z,21.62
2022-08-11T04:34:39.976Z,21.55
2022-08-11T04:37:50.774Z,21.64
2022-08-11T04:42:21.080Z,21.59
2022-08-11T04:45:58.343Z,21.51
2022-08-11T04:49:39.413Z,21.67
2022-08-11T04:53:01.706Z,21.64
2022-08-11T04:56:33.055Z,21.44
2022-08-11T05:00:01.564Z,21.67
2022-08-11T05:04:03.914Z,21.72
2022-08-11T05:07:52.554Z,21.56
2022-08-11T05:11:23.094Z,21.78
2022-08-11T05:14:42.001Z,21.58
2022-08-11T05:17:41.652Z,21.51
2022-08-11T05:20:31.227Z,21.57
2022-08-11T05:23:27.714Z,21.65
2022-08-11T05:26:47.574Z,21.58
2022-08-11T05:30:16.701Z,21.52
2022-08-11T05:33:12.617Z,21.58
2022-08-11T05:36:01.424Z,21.70
2022-08-11T05:38:55.683Z,21.52
2022-08-11T05:41:46.646Z,21.48
2022-08-11T05:44:39.895Z,21.42
2022-08-11T05:47:27.673Z,21.52
2022-08-11T05:50:15.148Z,21.55
2022-08-11T05:53:09.303Z,21.66
2022-08-11T05:56:04.091Z,21.86
2022-08-11T05:58:43.249Z,21.72
2022-08-11T06:01:24.783Z,21.78
2022-08-11T06:04:15.698Z,21.93
2022-08-11T06:07:08.916Z,22.20
2022-08-11T06:09:51.458Z,22.12
2022-08-11T06:12:37.400Z,22.26
2022-08-11T06:15:13.259Z,21.55
2022-08-11T06:17:48.701Z,21.80
2022-08-11T06:20:19.822Z,21.40
2022-08-11T06:22:59.199Z,21.64
2022-08-11T06:25:36.977Z,21.58
2022-08-11T06:28:09.000Z,22.07
2022-08-11T06:30:45.007Z,21.98
2022-08-11T06:34:10.954Z,22.15
2022-08-11T06:37:35.797Z,21.95
2022-08-11T06:41:15.347Z,22.09
2022-08-11T06:44:14.488Z,22.24
2022-08-11T06:46:51.658Z,22.10
2022-08-11T06:49:51.901Z,22.23
2022-08-11T06:52:35.721Z,22.55
2022-08-11T06:55:56.722Z,22.55
2022-08-11T06:58:57.354Z,22.69
2022-08-11T07:02:15.159Z,22.86
2022-08-11T07:04:58.011Z,22.97
2022-08-11T07:08:33.875Z,23.01
2022-08-11T07:12:23.097Z,23.15
2022-08-11T07:15:15.605Z,23.17
2022-08-11T07:18:11.553Z,23.18
2022-08-11T07:21:02.410Z,23.41
2022-08-11T07:23:55.111Z,23.51
2022-08-11T07:26:46.445Z,23.56
2022-08-11T07:29:15.086Z,23.62
2022-08-11T07:31:51.626Z,23.72
2022-08-11T07:34:40.480Z,23.73
2022-08-11T07:37:19.824Z,23.95
2022-08-11T07:39:49.617Z,23.98
2022-08-11T07:42:36.807Z,24.04
2022-08-11T07:45:26.421Z,24.03
2022-08-11T07:48:15.045Z,24.06
2022-08-11T07:51:03.078Z,24.25
2022-08-11T07:53:31.933Z,24.24
2022-08-11T07:56:03.008Z,24.21
2022-08-11T07:59:01.042Z,24.33
2022-08-11T08:01:52.393Z,24.54
2022-08-11T08:04:38.800Z,24.63
2022-08-11T08:07:25.267Z,24.76
2022-08-11T08:10:14.143Z,24.75
2022-08-11T08:13:02.634Z,24.81
2022-08-11T08:15:49.980Z,24.94
2022-08-11T08:18:26.259Z,25.04
2022-08-11T08:21:12.067Z,25.09
2022-08-11T08:23:44.413Z,25.01
2022-08-11T08:26:35.845Z,25.05
2022-08-11T08:29:26.219Z,24.94
2022-08-11T08:31:56.335Z,25.08
2022-08-11T08:34:23.932Z,25.29
2022-08-11T08:36:52.418Z,25.18
2022-08-11T08:39:24.538Z,25.14
2022-08-11T08:41:59.274Z,25.29
2022-08-11T08:44:45.002Z,25.35
2022-08-11T08:47:42.399Z,25.37
2022-08-11T08:50:16.713Z,25.46
2022-08-11T08:53:05.049Z,25.39
2022-08-11T08:55:33.753Z,25.41
2022-08-11T08:58:02.289Z,25.42
2022-08-11T09:00:46.270Z,25.58
2022-08-11T09:06:02.013Z,25.71
2022-08-11T09:08:33.683Z,25.77
2022-08-11T09:11:24.677Z,25.80
2022-08-11T09:14:04.704Z,25.82
2022-08-11T09:16:36.960Z,25.85
2022-08-11T09:19:05.414Z,25.89
2022-08-11T09:21:46.499Z,26.02
2022-08-11T09:24:37.739Z,25.89
2022-08-11T09:27:08.421Z,25.86
2022-08-11T09:29:38.828Z,25.92
2022-08-11T09:32:07.235Z,26.19
2022-08-11T09:34:37.355Z,26.17
2022-08-11T09:37:28.329Z,26.22
2022-08-11T09:40:31.580Z,26.28
2022-08-11T09:43:25.340Z,26.19
2022-08-11T09:45:54.594Z,26.36
2022-08-11T09:48:27.673Z,26.62
2022-08-11T09:51:00.193Z,26.44
2022-08-11T09:53:41.219Z,26.57
2022-08-11T09:56:36.953Z,26.57
2022-08-11T09:59:05.979Z,26.77
2022-08-11T10:01:59.201Z,26.65
2022-08-11T10:04:48.444Z,26.85
2022-08-11T10:07:19.437Z,26.89
2022-08-11T10:10:01.953Z,26.92
2022-08-11T10:12:56.373Z,26.77
2022-08-11T10:15:39.752Z,26.82
2022-08-11T10:18:49.338Z,26.96
2022-08-11T10:22:14.393Z,27.20
2022-08-11T10:25:03.846Z,27.52
2022-08-11T10:28:17.443Z,27.35
2022-08-11T10:30:39.037Z,27.44
2022-08-11T10:33:37.061Z,27.70
2022-08-11T10:36:16.675Z,27.21
2022-08-11T10:38:47.031Z,27.59
2022-08-11T10:41:33.601Z,27.59
2022-08-11T10:44:04.091Z,27.41
2022-08-11T10:46:50.683Z,27.98
2022-08-11T10:49:19.524Z,28.10
2022-08-11T10:52:05.953Z,27.58
2022-08-11T10:54:54.595Z,28.21
2022-08-11T10:57:42.053Z,27.93
2022-08-11T11:00:29.436Z,28.39
2022-08-11T11:03:07.178Z,28.20
2022-08-11T11:06:27.808Z,28.57
2022-08-11T11:08:57.512Z,28.35
2022-08-11T11:11:55.496Z,29.16
2022-08-11T11:14:50.765Z,29.34
2022-08-11T11:18:01.496Z,29.34
2022-08-11T11:21:19.553Z,29.61
2022-08-11T11:24:37.350Z,29.25
2022-08-11T11:27:59.783Z,30.20
2022-08-11T11:31:22.461Z,30.33
2022-08-11T11:34:53.744Z,30.52
2022-08-11T11:37:23.949Z,30.62
2022-08-11T11:39:55.109Z,30.78
2022-08-11T11:42:23.734Z,31.00
2022-08-11T11:44:55.657Z,30.99
2022-08-11T11:47:24.116Z,31.00
2022-08-11T11:49:53.109Z,31.19
2022-08-11T11:52:22.472Z,31.44
2022-08-11T11:54:57.589Z,31.38
2022-08-11T11:57:58.651Z,31.61
2022-08-11T12:00:47.923Z,31.53
2022-08-11T12:03:17.933Z,32.01
2022-08-11T12:05:45.838Z,31.96
2022-08-11T12:08:17.568Z,32.01
2022-08-11T12:11:19.176Z,32.28
2022-08-11T12:13:52.741Z,32.38
2022-08-11T12:16:34.221Z,32.22
2022-08-11T12:19:18.716Z,32.49
2022-08-11T12:22:06.155Z,32.62
2022-08-11T12:24:55.301Z,32.78
2022-08-11T12:27:27.481Z,32.60
2022-08-11T12:30:05.994Z,32.82
2022-08-11T12:32:38.548Z,33.20
2022-08-11T12:35:08.021Z,32.97
2022-08-11T12:37:51.938Z,33.14
2022-08-11T12:41:15.788Z,33.18
2022-08-11T12:43:56.566Z,33.63
2022-08-11T12:46:38.046Z,33.99
2022-08-11T12:49:42.006Z,33.74
2022-08-11T12:52:26.343Z,33.74
2022-08-11T12:55:39.070Z,34.01
2022-08-11T12:58:17.360Z,33.94
2022-08-11T13:01:04.832Z,34.30
2022-08-11T13:03:56.739Z,34.29
2022-08-11T13:06:25.725Z,34.43
2022-08-11T13:09:00.992Z,34.51
2022-08-11T13:11:56.601Z,34.55
2022-08-11T13:14:27.350Z,34.68
2022-08-11T13:17:13.858Z,34.78
2022-08-11T13:19:48.876Z,34.67
2022-08-11T13:22:21.172Z,34.99
2022-08-11T13:24:51.834Z,34.85
2022-08-11T13:27:20.826Z,35.13
2022-08-11T13:29:54.033Z,35.20
2022-08-11T13:32:26.303Z,35.46
2022-08-11T13:34:54.013Z,35.50
2022-08-11T13:38:27.110Z,35.26
2022-08-11T13:40:13.060Z,35.66
2022-08-11T13:42:42.012Z,35.49
2022-08-11T13:45:11.265Z,35.58
2022-08-11T13:47:43.413Z,35.81
2022-08-11T13:50:13.493Z,35.63
2022-08-11T13:52:42.993Z,35.76
2022-08-11T13:55:51.614Z,35.98
2022-08-11T13:58:19.105Z,35.51
2022-08-11T14:01:00.534Z,35.94
2022-08-11T14:04:31.446Z,35.76
2022-08-11T14:06:31.463Z,36.18
2022-08-11T14:09:00.090Z,36.24
2022-08-11T14:12:22.438Z,36.04
2022-08-11T14:14:37.281Z,36.27
2022-08-11T14:17:09.040Z,36.36
2022-08-11T14:19:45.473Z,36.19
2022-08-11T14:22:15.592Z,36.32
2022-08-11T14:24:49.546Z,36.24
2022-08-11T14:28:29.459Z,36.01
2022-08-11T14:30:29.167Z,36.42
2022-08-11T14:32:57.325Z,36.54
2022-08-11T14:35:28.278Z,36.20
2022-08-11T14:37:57.186Z,36.45
2022-08-11T14:40:44.051Z,36.59
2022-08-11T14:44:12.938Z,36.53
2022-08-11T14:46:36.939Z,36.80
2022-08-11T14:49:04.958Z,36.24
2022-08-11T14:51:34.000Z,36.41
2022-08-11T14:54:21.973Z,36.51
2022-08-11T14:56:49.458Z,36.68
2022-08-11T14:59:17.197Z,36.70
2022-08-11T15:02:04.033Z,36.86
2022-08-11T15:04:36.713Z,36.76
2022-08-11T15:07:16.294Z,36.95
2022-08-11T15:10:11.659Z,37.08
2022-08-11T15:12:36.346Z,37.22
2022-08-11T15:15:26.316Z,37.07
2022-08-11T15:18:02.417Z,37.15
2022-08-11T15:20:53.511Z,36.82
2022-08-11T15:23:40.243Z,36.65
2022-08-11T15:27:00.337Z,36.88
2022-08-11T15:29:51.474Z,36.82
2022-08-11T15:32:22.325Z,37.10
2022-08-11T15:35:21.984Z,36.95
2022-08-11T15:37:56.543Z,36.51
2022-08-11T15:40:54.171Z,36.66
2022-08-11T15:43:58.322Z,36.68
2022-08-11T15:46:55.157Z,36.40
2022-08-11T15:50:10.980Z,36.52
2022-08-11T15:52:40.558Z,36.52
2022-08-11T15:55:09.293Z,36.44
2022-08-11T15:57:59.042Z,36.21
2022-08-11T16:00:46.531Z,36.32
2022-08-11T16:03:54.422Z,36.56
2022-08-11T16:06:26.681Z,36.16
2022-08-11T16:08:59.578Z,35.99
2022-08-11T16:11:27.957Z,36.17
2022-08-11T16:14:14.153Z,35.74
2022-08-11T16:16:42.916Z,35.90
2022-08-11T16:19:12.142Z,35.92
2022-08-11T16:21:40.359Z,35.90
2022-08-11T16:27:05.149Z,35.93
2022-08-11T16:27:13.547Z,35.85
2022-08-11T16:29:48.280Z,35.44
2022-08-11T16:32:23.663Z,35.72
2022-08-11T16:35:24.872Z,35.34
2022-08-11T16:38:13.676Z,35.37
2022-08-11T16:40:44.285Z,35.57
2022-08-11T16:43:37.543Z,35.49
2022-08-11T16:46:37.499Z,35.20
2022-08-11T16:49:21.865Z,35.00
2022-08-11T16:51:49.272Z,34.95
2022-08-11T16:54:16.769Z,34.51
2022-08-11T16:56:54.109Z,34.62
2022-08-11T16:59:32.483Z,34.73
2022-08-11T17:02:39.232Z,34.33
2022-08-11T17:05:53.736Z,34.37
2022-08-11T17:08:56.955Z,34.04
2022-08-11T17:11:51.674Z,34.00
2022-08-11T17:14:49.187Z,33.15
2022-08-11T17:17:38.953Z,33.57
2022-08-11T17:20:39.564Z,33.56
2022-08-11T17:23:21.055Z,33.53
2022-08-11T17:26:03.502Z,33.38
2022-08-11T17:28:34.386Z,33.36
2022-08-11T17:31:21.961Z,33.12
2022-08-11T17:34:11.157Z,33.06
2022-08-11T17:36:45.970Z,32.97
2022-08-11T17:39:15.235Z,32.91
2022-08-11T17:42:02.940Z,32.86
2022-08-11T17:44:51.923Z,32.71
2022-08-11T17:47:39.464Z,32.58
2022-08-11T17:50:16.909Z,32.38
2022-08-11T17:53:06.385Z,32.26
2022-08-11T17:55:55.907Z,32.19
2022-08-11T17:58:44.967Z,32.27
2022-08-11T18:01:14.500Z,32.24
2022-08-11T18:03:57.801Z,32.12
2022-08-11T18:06:34.544Z,32.06
2022-08-11T18:09:37.116Z,31.98
2022-08-11T18:12:28.055Z,31.87
2022-08-11T18:15:15.396Z,31.85
2022-08-11T18:18:02.899Z,31.73
2022-08-11T18:20:49.297Z,31.78
2022-08-11T18:23:46.759Z,31.76
2022-08-11T18:26:41.355Z,31.61
2022-08-11T18:29:29.357Z,31.60
2022-08-11T18:32:21.902Z,31.44
2022-08-11T18:35:13.513Z,31.46
2022-08-11T18:38:08.100Z,31.23
2022-08-11T18:40:56.618Z,31.19
2022-08-11T18:43:46.558Z,31.23
2022-08-11T18:46:35.256Z,31.05
2022-08-11T18:50:01.637Z,31.17
2022-08-11T18:52:44.121Z,31.08
2022-08-11T18:55:38.165Z,30.87
2022-08-11T18:58:30.440Z,30.84
2022-08-11T19:01:19.994Z,30.71
2022-08-11T19:04:11.137Z,30.74
2022-08-11T19:07:04.294Z,30.78
2022-08-11T19:09:51.204Z,30.78
2022-08-11T19:12:39.746Z,30.62
2022-08-11T19:15:28.207Z,30.59
2022-08-11T19:18:16.148Z,30.47
2022-08-11T19:21:03.549Z,30.44
2022-08-11T19:24:05.373Z,30.34
2022-08-11T19:26:53.266Z,30.37
2022-08-11T19:30:05.234Z,30.19
2022-08-11T19:32:49.855Z,30.06
2022-08-11T19:35:36.273Z,30.17
2022-08-11T19:38:26.956Z,30.07
2022-08-11T19:41:52.151Z,30.06
2022-08-11T19:44:25.928Z,29.83
2022-08-11T19:47:12.730Z,29.97
2022-08-11T19:50:00.213Z,29.93
2022-08-11T19:52:48.848Z,29.77
2022-08-11T19:55:36.237Z,29.81
2022-08-11T19:58:23.053Z,29.68
2022-08-11T20:01:09.471Z,29.61
2022-08-11T20:03:55.807Z,29.67
2022-08-11T20:06:42.689Z,29.53
2022-08-11T20:10:05.139Z,29.43
2022-08-11T20:12:38.277Z,29.49
2022-08-11T20:15:26.912Z,29.33
2022-08-11T20:18:12.861Z,29.36
2022-08-11T20:20:59.263Z,29.09
2022-08-11T20:23:46.365Z,29.18
2022-08-11T20:26:32.897Z,29.17
2022-08-11T20:29:20.252Z,29.02
2022-08-11T20:32:09.835Z,29.21
2022-08-11T20:34:58.530Z,29.13
2022-08-11T20:37:50.380Z,29.08
2022-08-11T20:40:44.676Z,28.91
2022-08-11T20:44:08.541Z,29.01
2022-08-11T20:46:45.675Z,28.87
2022-08-11T20:52:48.262Z,28.76
2022-08-11T20:55:46.253Z,28.75
2022-08-11T20:59:11.825Z,28.73
2022-08-11T21:01:52.118Z,28.68
2022-08-11T21:04:54.019Z,28.65
2022-08-11T21:07:44.293Z,28.44
2022-08-11T21:10:51.703Z,28.46
2022-08-11T21:13:47.457Z,28.44
2022-08-11T21:16:48.776Z,28.39
2022-08-11T21:20:07.788Z,28.40
2022-08-11T21:23:24.221Z,28.28
2022-08-11T21:26:26.917Z,28.29
2022-08-11T21:29:17.828Z,28.36
2022-08-11T21:32:04.711Z,28.09
2022-08-11T21:34:51.180Z,28.16
2022-08-11T21:37:37.972Z,28.15
2022-08-11T21:40:27.357Z,28.13
2022-08-11T21:43:18.979Z,28.13
2022-08-11T21:46:06.914Z,27.96
2022-08-11T21:48:54.832Z,27.81
2022-08-11T21:51:44.477Z,27.88
2022-08-11T21:54:31.116Z,27.85
2022-08-11T21:57:17.861Z,27.89
2022-08-11T22:00:17.861Z,27.85
2022-08-11T22:03:06.888Z,27.72
2022-08-11T22:05:55.637Z,27.65
2022-08-11T22:08:41.569Z,27.78
2022-08-11T22:11:31.851Z,27.59
2022-08-11T22:14:20.541Z,27.50
2022-08-11T22:17:06.421Z,27.62
2022-08-11T22:19:56.416Z,27.47
2022-08-11T22:22:51.844Z,27.45
2022-08-11T22:25:50.730Z,27.45
2022-08-11T22:28:40.816Z,27.48
2022-08-11T22:31:29.197Z,27.41
2022-08-11T22:34:15.157Z,27.42
2022-08-11T22:37:04.648Z,27.26
2022-08-11T22:40:02.244Z,27.28
2022-08-11T22:42:51.609Z,27.18
2022-08-11T22:45:40.732Z,27.18
2022-08-11T22:48:29.479Z,27.18
2022-08-11T22:51:18.628Z,27.11
2022-08-11T22:54:06.129Z,27.05
2022-08-11T22:56:53.053Z,27.21
2022-08-11T22:59:39.866Z,27.05
2022-08-11T23:02:26.871Z,26.99
2022-08-11T23:05:14.009Z,27.04
2022-08-11T23:08:00.908Z,26.89
2022-08-11T23:10:46.763Z,26.85
2022-08-11T23:13:33.835Z,26.79
2022-08-11T23:16:20.216Z,26.86
2022-08-11T23:19:07.266Z,26.75
2022-08-11T23:21:54.192Z,26.70
2022-08-11T23:24:42.869Z,26.64
2022-08-11T23:27:30.307Z,26.65
2022-08-11T23:30:19.378Z,26.58
2022-08-11T23:33:13.238Z,26.61
2022-08-11T23:36:08.216Z,26.61
2022-08-11T23:38:55.171Z,26.50
2022-08-11T23:41:41.667Z,26.46
2022-08-11T23:44:28.548Z,26.45
2022-08-11T23:47:21.070Z,26.39
2022-08-11T23:50:07.818Z,26.40
2022-08-11T23:52:55.754Z,26.34
2022-08-11T23:55:41.676Z,26.36
2022-08-11T23:58:30.623Z,26.32
